Flight Track Log - Related Links

Times and Time Zones

All times are in EDT time to prevent confusion due to time zone crossing. See the AWE1940 flight status page for this flight to view local times or setup timezone preferences in your user account.

Time Position Orientation Groundspeed Altitude Reporting Facility
EDT Latitude Longitude Course Direction KTS MPH feet Rate Location/Type
Tue 01:00:06 35.2019 -80.9606 14° North 172 198 1,500  Level Atlanta Center
Tue 01:01:01 35.1672 -80.9925 217° Southwest 192 221 3,000 1,636 Climbing Atlanta Center
Tue 01:03:00 42.2315 -73.4895 14° North  Level FlightAware Approximate
Tue 01:03:00 35.1635 -80.9759 106° East  Level FlightAware Approximate
Tue 01:04:00 42.2384 -73.4872 14° North  Level FlightAware Approximate
Tue 01:05:00 42.2453 -73.4849 14° North  Level FlightAware Approximate
Tue 01:10:00 35.2046 -80.9418 141° Southeast  Level Estimated
Tue 01:11:00 35.1986 -80.9372 148° Southeast  Level FlightAware Approximate
Tue 01:12:00 35.1925 -80.9326 148° Southeast  Level FlightAware Approximate
Tue 01:13:00 35.1865 -80.9280 148° Southeast  Level FlightAware Approximate
Tue 01:14:00 35.1805 -80.9235 148° Southeast  Level FlightAware Approximate
Tue 01:15:00 35.1744 -80.9189 148° Southeast  Level FlightAware Approximate
Tue 01:16:00 35.1684 -80.9143 148° Southeast  Level FlightAware Approximate
Tue 01:17:00 35.1623 -80.9098 148° Southeast  Level FlightAware Approximate
Tue 01:18:00 35.1682 -80.9049 80° East  Level Estimated
Tue 01:19:00 35.1651 -80.8971 116° Southeast  Level FlightAware Approximate
Tue 01:20:00 35.1620 -80.8893 116° Southeast  Level FlightAware Approximate
Tue 01:21:00 35.1589 -80.8815 116° Southeast  Level FlightAware Approximate
Tue 01:22:00 35.1558 -80.8737 116° Southeast  Level FlightAware Approximate
Tue 01:23:00 35.1527 -80.8659 116° Southeast  Level FlightAware Approximate
Tue 01:24:00 35.1496 -80.8580 116° Southeast  Level FlightAware Approximate
Tue 01:25:00 35.1465 -80.8502 116° Southeast  Level FlightAware Approximate
Tue 01:26:00 35.1434 -80.8424 116° Southeast  Level FlightAware Approximate
Tue 01:27:00 35.1403 -80.8346 116° Southeast  Level FlightAware Approximate
Tue 01:28:00 35.1372 -80.8268 116° Southeast  Level FlightAware Approximate
Tue 01:29:00 35.1341 -80.8190 116° Southeast  Level FlightAware Approximate
Tue 01:30:00 35.1310 -80.8112 116° Southeast  Level FlightAware Approximate
Tue 01:31:00 35.1279 -80.8034 116° Southeast  Level FlightAware Approximate
Tue 01:32:00 35.1338 -80.7986 90° East  Level Estimated
Tue 01:33:00 35.1306 -80.7908 117° Southeast  Level FlightAware Approximate
Tue 01:34:00 35.1366 -80.7861 90° East  Level Estimated
Tue 01:35:00 35.1346 -80.7777 106° East  Level FlightAware Approximate
Tue 01:36:00 35.1326 -80.7694 106° East  Level FlightAware Approximate
Tue 01:37:00 35.1306 -80.7610 106° East  Level FlightAware Approximate
Tue 01:38:00 35.1286 -80.7527 106° East  Level FlightAware Approximate
Tue 01:39:00 35.1266 -80.7444 106° East  Level FlightAware Approximate
Tue 01:40:00 35.1246 -80.7361 106° East  Level FlightAware Approximate
Tue 01:41:00 35.1226 -80.7277 106° East  Level FlightAware Approximate
Tue 01:42:00 35.1206 -80.7194 106° East  Level FlightAware Approximate
Tue 01:43:00 35.1266 -80.7147 29° Northeast  Level Estimated
Tue 01:44:00 35.1303 -80.7072 59° Northeast  Level FlightAware Approximate
Tue 01:45:00 35.1340 -80.6998 59° Northeast  Level FlightAware Approximate
Tue 01:46:00 35.1376 -80.6924 59° Northeast  Level FlightAware Approximate
Tue 01:47:00 35.1413 -80.6850 59° Northeast  Level FlightAware Approximate
Tue 01:48:00 35.1450 -80.6776 59° Northeast  Level FlightAware Approximate
Tue 01:49:00 35.1487 -80.6701 59° Northeast  Level FlightAware Approximate
Tue 01:50:00 35.1524 -80.6627 59° Northeast  Level FlightAware Approximate
Tue 01:51:00 35.1561 -80.6553 59° Northeast  Level FlightAware Approximate
Tue 01:52:00 35.1598 -80.6479 59° Northeast  Level FlightAware Approximate
Tue 01:53:00 35.1634 -80.6404 59° Northeast  Level FlightAware Approximate
Tue 01:54:00 35.1671 -80.6330 59° Northeast  Level FlightAware Approximate
Tue 01:55:00 35.1708 -80.6256 59° Northeast  Level FlightAware Approximate
Tue 01:56:00 35.1745 -80.6181 59° Northeast  Level FlightAware Approximate
Tue 01:57:00 35.1782 -80.6107 59° Northeast  Level FlightAware Approximate
Tue 01:58:00 35.1819 -80.6033 59° Northeast  Level FlightAware Approximate
Tue 01:59:00 35.1878 -80.5986 30° Northeast  Level Estimated
Tue 02:00:00 35.1936 -80.5934 36° Northeast  Level FlightAware Approximate
Tue 02:01:00 35.1993 -80.5883 36° Northeast  Level FlightAware Approximate
Tue 02:02:00 35.2050 -80.5832 36° Northeast  Level FlightAware Approximate
Tue 02:03:00 35.2108 -80.5781 36° Northeast  Level FlightAware Approximate
Tue 02:04:00 35.2165 -80.5730 36° Northeast  Level FlightAware Approximate
Tue 02:05:00 35.2223 -80.5678 36° Northeast  Level FlightAware Approximate
Tue 02:06:00 35.2280 -80.5627 36° Northeast  Level FlightAware Approximate
Tue 02:07:00 35.2337 -80.5576 36° Northeast  Level FlightAware Approximate
Tue 02:08:00 35.2395 -80.5524 36° Northeast  Level FlightAware Approximate
Tue 02:09:00 35.2452 -80.5473 36° Northeast  Level FlightAware Approximate
Tue 02:10:00 35.2509 -80.5422 36° Northeast  Level FlightAware Approximate
Tue 02:11:00 35.2567 -80.5370 36° Northeast  Level FlightAware Approximate
Tue 02:12:00 35.2624 -80.5319 36° Northeast  Level FlightAware Approximate
Tue 02:13:00 35.2681 -80.5268 36° Northeast  Level FlightAware Approximate
Tue 02:14:00 35.2738 -80.5217 36° Northeast  Level FlightAware Approximate
Tue 02:15:00 35.2796 -80.5165 36° Northeast  Level FlightAware Approximate
Tue 02:16:00 35.2853 -80.5114 36° Northeast  Level FlightAware Approximate
Tue 02:17:00 35.2910 -80.5063 36° Northeast  Level FlightAware Approximate
Tue 02:18:00 35.2970 -80.5015 90° East  Level Estimated
Tue 02:19:00 35.3010 -80.4944 55° Northeast  Level FlightAware Approximate
Tue 02:20:00 35.3070 -80.4897 North  Level Estimated
Tue 02:21:00 35.3128 -80.4846 35° Northeast  Level FlightAware Approximate
Tue 02:22:00 35.3186 -80.4796 35° Northeast  Level FlightAware Approximate
Tue 02:23:00 35.3245 -80.4749 72° East  Level Estimated
Tue 02:24:00 35.3269 -80.4666 71° East  Level FlightAware Approximate
Tue 02:25:00 35.3292 -80.4584 71° East  Level FlightAware Approximate
Tue 02:26:00 35.3316 -80.4502 71° East  Level FlightAware Approximate
Tue 02:27:00 35.3339 -80.4420 71° East  Level FlightAware Approximate
Tue 02:28:00 35.3362 -80.4337 71° East  Level FlightAware Approximate
Tue 02:29:00 35.3386 -80.4255 71° East  Level FlightAware Approximate
Tue 02:30:00 35.3409 -80.4173 71° East  Level FlightAware Approximate
Tue 02:31:00 35.3433 -80.4091 71° East  Level FlightAware Approximate
Tue 02:32:00 35.3456 -80.4009 71° East  Level FlightAware Approximate
Tue 02:33:00 35.3479 -80.3926 71° East  Level FlightAware Approximate
Tue 02:34:00 35.3503 -80.3844 71° East  Level FlightAware Approximate
Tue 02:35:00 35.3526 -80.3762 71° East  Level FlightAware Approximate
Tue 02:36:00 35.3550 -80.3680 71° East  Level FlightAware Approximate
Tue 02:37:00 35.3573 -80.3598 71° East  Level FlightAware Approximate
Tue 02:38:00 35.3596 -80.3515 71° East  Level FlightAware Approximate
Tue 02:39:00 35.3620 -80.3433 71° East  Level FlightAware Approximate
Tue 02:40:00 35.3643 -80.3351 71° East  Level FlightAware Approximate
Tue 02:41:00 35.3666 -80.3269 71° East  Level FlightAware Approximate
Tue 02:42:00 35.3690 -80.3187 71° East  Level FlightAware Approximate
Tue 02:43:00 35.3713 -80.3104 71° East  Level FlightAware Approximate
Tue 02:44:00 35.3736 -80.3022 71° East  Level FlightAware Approximate
Tue 02:45:00 35.3759 -80.2940 71° East  Level FlightAware Approximate
Tue 02:46:00 35.3783 -80.2857 71° East  Level FlightAware Approximate
Tue 02:47:00 35.3806 -80.2775 71° East  Level FlightAware Approximate
Tue 02:48:00 35.3829 -80.2693 71° East  Level FlightAware Approximate
Tue 02:49:00 35.3853 -80.2610 71° East  Level FlightAware Approximate
Tue 02:50:00 35.3876 -80.2528 71° East  Level FlightAware Approximate
Tue 02:51:00 35.3899 -80.2446 71° East  Level FlightAware Approximate
Tue 02:52:00 35.3923 -80.2364 71° East  Level FlightAware Approximate
Tue 02:53:00 35.3946 -80.2281 71° East  Level FlightAware Approximate
Tue 02:54:00 35.3969 -80.2199 71° East  Level FlightAware Approximate
Tue 02:55:00 35.3993 -80.2117 71° East  Level FlightAware Approximate
Tue 02:56:00 35.4016 -80.2034 71° East  Level FlightAware Approximate
Tue 02:57:00 35.4039 -80.1952 71° East  Level FlightAware Approximate
Tue 02:58:00 35.4062 -80.1870 71° East  Level FlightAware Approximate
Tue 02:59:00 35.4086 -80.1787 71° East  Level FlightAware Approximate
Tue 03:00:00 35.4109 -80.1705 71° East  Level FlightAware Approximate
Tue 03:01:00 35.4169 -80.1659 71° East  Level Estimated
Tue 03:02:00 35.4191 -80.1576 72° East  Level FlightAware Approximate
Tue 03:03:00 35.4213 -80.1493 72° East  Level FlightAware Approximate
Tue 03:04:00 35.4234 -80.1410 72° East  Level FlightAware Approximate
Tue 03:05:00 35.4256 -80.1327 72° East  Level FlightAware Approximate
Tue 03:06:00 35.4278 -80.1244 72° East  Level FlightAware Approximate
Tue 03:07:00 35.4300 -80.1161 72° East  Level FlightAware Approximate
Tue 03:08:00 35.4322 -80.1078 72° East  Level FlightAware Approximate
Tue 03:09:00 35.4343 -80.0995 72° East  Level FlightAware Approximate
Tue 03:10:00 35.4365 -80.0912 72° East  Level FlightAware Approximate
Tue 03:11:00 35.4387 -80.0829 72° East  Level FlightAware Approximate
Tue 03:12:00 35.4408 -80.0746 72° East  Level FlightAware Approximate
Tue 03:13:00 35.4430 -80.0663 72° East  Level FlightAware Approximate
Tue 03:14:00 35.4452 -80.0580 72° East  Level FlightAware Approximate
Tue 03:15:00 35.4473 -80.0497 72° East  Level FlightAware Approximate
Tue 03:16:00 35.4495 -80.0414 72° East  Level FlightAware Approximate
Tue 03:17:00 35.4517 -80.0331 72° East  Level FlightAware Approximate
Tue 03:18:00 35.4538 -80.0248 72° East  Level FlightAware Approximate
Tue 03:19:00 35.4560 -80.0165 72° East  Level FlightAware Approximate
Tue 03:20:00 35.4582 -80.0082 72° East  Level FlightAware Approximate
Tue 03:21:00 35.4604 -79.9999 72° East  Level FlightAware Approximate
Tue 03:22:00 35.4625 -79.9916 72° East  Level FlightAware Approximate
Tue 03:23:00 35.4647 -79.9833 72° East  Level FlightAware Approximate
Tue 03:24:00 35.4669 -79.9750 72° East  Level FlightAware Approximate
Tue 03:25:00 35.4690 -79.9667 72° East  Level FlightAware Approximate
Tue 03:26:00 35.4712 -79.9584 72° East  Level FlightAware Approximate
Tue 03:27:00 35.4734 -79.9501 72° East  Level FlightAware Approximate
Tue 03:28:00 35.4755 -79.9418 72° East  Level FlightAware Approximate
Tue 03:29:00 35.4777 -79.9335 72° East  Level FlightAware Approximate
Tue 03:30:00 35.4798 -79.9252 72° East  Level FlightAware Approximate
Tue 03:31:00 35.4820 -79.9169 72° East  Level FlightAware Approximate
Tue 03:32:00 35.4841 -79.9086 72° East  Level FlightAware Approximate
Tue 03:33:00 35.4863 -79.9003 72° East  Level FlightAware Approximate
Tue 03:34:00 35.4885 -79.8920 72° East  Level FlightAware Approximate
Tue 03:35:00 35.4906 -79.8836 72° East  Level FlightAware Approximate
Tue 03:36:00 35.4928 -79.8753 72° East  Level FlightAware Approximate
Tue 03:37:00 35.4949 -79.8670 72° East  Level FlightAware Approximate
Tue 03:38:00 35.4971 -79.8587 72° East  Level FlightAware Approximate
Tue 03:39:00 35.4993 -79.8504 72° East  Level FlightAware Approximate
Tue 03:40:00 35.5014 -79.8421 72° East  Level FlightAware Approximate
Tue 03:41:00 35.5036 -79.8338 72° East  Level FlightAware Approximate
Tue 03:42:00 35.5057 -79.8255 72° East  Level FlightAware Approximate
Tue 03:43:00 35.5079 -79.8172 72° East  Level FlightAware Approximate
Tue 03:44:00 35.5101 -79.8089 72° East  Level FlightAware Approximate
Tue 03:45:00 35.5162 -79.8044 74° East  Level Estimated
Tue 03:46:00 35.5181 -79.7960 74° East  Level FlightAware Approximate
Tue 03:47:00 35.5200 -79.7876 74° East  Level FlightAware Approximate
Tue 03:48:00 35.5219 -79.7792 74° East  Level FlightAware Approximate
Tue 03:49:00 35.5238 -79.7708 74° East  Level FlightAware Approximate
Tue 03:50:00 35.5257 -79.7624 74° East  Level FlightAware Approximate
Tue 03:51:00 35.5276 -79.7540 74° East  Level FlightAware Approximate
Tue 03:52:00 35.5295 -79.7456 74° East  Level FlightAware Approximate
Tue 03:53:00 35.5314 -79.7372 74° East  Level FlightAware Approximate
Tue 03:54:00 35.5333 -79.7288 74° East  Level FlightAware Approximate
Tue 03:55:00 35.5353 -79.7204 74° East  Level FlightAware Approximate
Tue 03:56:00 35.5372 -79.7119 74° East  Level FlightAware Approximate
Tue 03:57:00 35.5391 -79.7035 74° East  Level FlightAware Approximate
Tue 03:58:00 35.5410 -79.6951 74° East  Level FlightAware Approximate
Tue 03:59:00 35.5429 -79.6867 74° East  Level FlightAware Approximate
Tue 04:00:00 35.5448 -79.6783 74° East  Level FlightAware Approximate
Tue 04:01:00 35.5467 -79.6699 74° East  Level FlightAware Approximate
Tue 04:02:00 35.5486 -79.6615 74° East  Level FlightAware Approximate
Tue 04:03:00 35.5505 -79.6531 74° East  Level FlightAware Approximate
Tue 04:04:00 35.5524 -79.6447 74° East  Level FlightAware Approximate
Tue 04:05:00 35.5543 -79.6363 74° East  Level FlightAware Approximate
Tue 04:06:00 35.5562 -79.6278 74° East  Level FlightAware Approximate
Tue 04:07:00 35.5581 -79.6194 74° East  Level FlightAware Approximate
Tue 04:08:00 35.5600 -79.6110 74° East  Level FlightAware Approximate
Tue 04:09:00 35.5619 -79.6026 74° East  Level FlightAware Approximate
Tue 04:10:00 35.5638 -79.5942 74° East  Level FlightAware Approximate
Tue 04:11:00 35.5657 -79.5858 74° East  Level FlightAware Approximate
Tue 04:12:00 35.5676 -79.5774 74° East  Level FlightAware Approximate
Tue 04:13:00 35.5695 -79.5690 74° East  Level FlightAware Approximate
Tue 04:14:00 35.5714 -79.5606 74° East  Level FlightAware Approximate
Tue 04:15:00 35.5733 -79.5521 75° East  Level FlightAware Approximate
Tue 04:16:00 35.5752 -79.5437 75° East  Level FlightAware Approximate
Tue 04:17:00 35.5771 -79.5353 75° East  Level FlightAware Approximate
Tue 04:18:00 35.5790 -79.5269 75° East  Level FlightAware Approximate
Tue 04:19:00 35.5809 -79.5185 75° East  Level FlightAware Approximate
Tue 04:20:00 35.5827 -79.5101 75° East  Level FlightAware Approximate
Tue 04:21:00 35.5846 -79.5017 75° East  Level FlightAware Approximate
Tue 04:22:00 35.5865 -79.4932 75° East  Level FlightAware Approximate
Tue 04:23:00 35.5884 -79.4848 75° East  Level FlightAware Approximate
Tue 04:24:00 35.5903 -79.4764 75° East  Level FlightAware Approximate
Tue 04:25:00 35.5922 -79.4680 75° East  Level FlightAware Approximate
Tue 04:26:00 35.5941 -79.4596 75° East  Level FlightAware Approximate
Tue 04:27:00 35.6003 -79.4552 63° Northeast  Level Estimated
Tue 04:28:00 35.6034 -79.4474 64° Northeast  Level FlightAware Approximate
Tue 04:29:00 35.6064 -79.4395 64° Northeast  Level FlightAware Approximate
Tue 04:30:00 35.6095 -79.4316 64° Northeast  Level FlightAware Approximate
Tue 04:31:00 35.6126 -79.4238 64° Northeast  Level FlightAware Approximate
Tue 04:32:00 35.6157 -79.4159 64° Northeast  Level FlightAware Approximate

Login

Don't have an account? Register now (free) for customized features, flight alerts, and more!